sensor_id;sensor_type;location;lat;lon;timestamp;pressure;altitude;pressure_sealevel;temperature
60936;BMP280;46804;51.786;19.520;2023-07-29T00:02:03;158443.16;;;16.57
60936;BMP280;46804;51.786;19.520;2023-07-29T00:06:05;158447.03;;;16.58
60936;BMP280;46804;51.786;19.520;2023-07-29T00:10:06;158461.19;;;16.64
60936;BMP280;46804;51.786;19.520;2023-07-29T00:14:07;158470.22;;;16.67
60936;BMP280;46804;51.786;19.520;2023-07-29T00:18:08;158484.38;;;16.72
60936;BMP280;46804;51.786;19.520;2023-07-29T00:22:08;158480.56;;;16.71
60936;BMP280;46804;51.786;19.520;2023-07-29T00:26:09;158483.09;;;16.72
60936;BMP280;46804;51.786;19.520;2023-07-29T00:30:10;158495.97;;;16.77
60936;BMP280;46804;51.786;19.520;2023-07-29T00:34:11;158488.25;;;16.74
60936;BMP280;46804;51.786;19.520;2023-07-29T00:38:17;158485.72;;;16.73
60936;BMP280;46804;51.786;19.520;2023-07-29T00:42:18;158489.53;;;16.74
60936;BMP280;46804;51.786;19.520;2023-07-29T00:46:19;158499.88;;;16.78
60936;BMP280;46804;51.786;19.520;2023-07-29T00:50:21;158502.47;;;16.79
60936;BMP280;46804;51.786;19.520;2023-07-29T00:54:22;158497.31;;;16.77
60936;BMP280;46804;51.786;19.520;2023-07-29T00:58:22;158507.63;;;16.81
60936;BMP280;46804;51.786;19.520;2023-07-29T01:02:23;158519.22;;;16.86
60936;BMP280;46804;51.786;19.520;2023-07-29T01:06:29;158511.47;;;16.83
60936;BMP280;46804;51.786;19.520;2023-07-29T01:10:58;158501.13;;;16.79
60936;BMP280;46804;51.786;19.520;2023-07-29T01:15:13;158485.72;;;16.73
60936;BMP280;46804;51.786;19.520;2023-07-29T01:19:42;158492.16;;;16.75
60936;BMP280;46804;51.786;19.520;2023-07-29T01:23:43;158505.03;;;16.80
60936;BMP280;46804;51.786;19.520;2023-07-29T01:27:46;158506.31;;;16.81
60936;BMP280;46804;51.786;19.520;2023-07-29T01:31:48;158487.00;;;16.73
60936;BMP280;46804;51.786;19.520;2023-07-29T01:36:11;158466.34;;;16.65
60936;BMP280;46804;51.786;19.520;2023-07-29T01:40:14;158450.91;;;16.60
60936;BMP280;46804;51.786;19.520;2023-07-29T01:44:15;158434.16;;;16.53
60936;BMP280;46804;51.786;19.520;2023-07-29T01:48:17;158407.06;;;16.43
60936;BMP280;46804;51.786;19.520;2023-07-29T01:52:18;158395.47;;;16.38
60936;BMP280;46804;51.786;19.520;2023-07-29T01:56:18;158404.47;;;16.42
60936;BMP280;46804;51.786;19.520;2023-07-29T02:00:19;158412.25;;;16.45
60936;BMP280;46804;51.786;19.520;2023-07-29T02:04:20;158399.34;;;16.40
60936;BMP280;46804;51.786;19.520;2023-07-29T02:08:20;158405.81;;;16.42
60936;BMP280;46804;51.786;19.520;2023-07-29T02:12:21;158423.84;;;16.49
60936;BMP280;46804;51.786;19.520;2023-07-29T02:16:22;158426.38;;;16.50
60936;BMP280;46804;51.786;19.520;2023-07-29T02:20:23;158427.66;;;16.51
60936;BMP280;46804;51.786;19.520;2023-07-29T02:24:23;158430.28;;;16.52
60936;BMP280;46804;51.786;19.520;2023-07-29T02:28:24;158435.44;;;16.54
60936;BMP280;46804;51.786;19.520;2023-07-29T02:32:25;158434.16;;;16.53
60936;BMP280;46804;51.786;19.520;2023-07-29T02:36:25;158434.16;;;16.53
60936;BMP280;46804;51.786;19.520;2023-07-29T02:40:26;158419.94;;;16.48
60936;BMP280;46804;51.786;19.520;2023-07-29T02:44:28;158409.63;;;16.44
60936;BMP280;46804;51.786;19.520;2023-07-29T02:48:29;158405.81;;;16.42
60936;BMP280;46804;51.786;19.520;2023-07-29T02:52:30;158416.06;;;16.46
60936;BMP280;46804;51.786;19.520;2023-07-29T02:56:31;158425.13;;;16.50
60936;BMP280;46804;51.786;19.520;2023-07-29T03:00:32;158430.28;;;16.52
60936;BMP280;46804;51.786;19.520;2023-07-29T03:04:33;158429.00;;;16.51
60936;BMP280;46804;51.786;19.520;2023-07-29T03:08:34;158452.19;;;16.60
60936;BMP280;46804;51.786;19.520;2023-07-29T03:12:35;158459.91;;;16.63
60936;BMP280;46804;51.786;19.520;2023-07-29T03:16:36;158454.75;;;16.61
60936;BMP280;46804;51.786;19.520;2023-07-29T03:20:36;158467.66;;;16.66
60936;BMP280;46804;51.786;19.520;2023-07-29T03:24:37;158490.88;;;16.75
60936;BMP280;46804;51.786;19.520;2023-07-29T03:28:40;158492.16;;;16.75
60936;BMP280;46804;51.786;19.520;2023-07-29T03:32:43;158477.94;;;16.70
60936;BMP280;46804;51.786;19.520;2023-07-29T03:36:44;158493.44;;;16.76
60936;BMP280;46804;51.786;19.520;2023-07-29T03:40:48;158495.97;;;16.77
60936;BMP280;46804;51.786;19.520;2023-07-29T03:44:49;158498.59;;;16.78
60936;BMP280;46804;51.786;19.520;2023-07-29T03:48:49;158524.34;;;16.88
60936;BMP280;46804;51.786;19.520;2023-07-29T03:52:50;158555.31;;;16.99
60936;BMP280;46804;51.786;19.520;2023-07-29T03:56:51;158550.16;;;16.98
60936;BMP280;46804;51.786;19.520;2023-07-29T04:00:52;158550.16;;;16.98
60936;BMP280;46804;51.786;19.520;2023-07-29T04:04:52;158568.19;;;17.04
60936;BMP280;46804;51.786;19.520;2023-07-29T04:08:53;158534.66;;;16.92
60936;BMP280;46804;51.786;19.520;2023-07-29T04:12:53;158537.25;;;16.93
60936;BMP280;46804;51.786;19.520;2023-07-29T04:16:54;158583.69;;;17.10
60936;BMP280;46804;51.786;19.520;2023-07-29T04:20:55;158612.09;;;17.21
60936;BMP280;46804;51.786;19.520;2023-07-29T04:24:55;158596.59;;;17.15
60936;BMP280;46804;51.786;19.520;2023-07-29T04:28:56;158650.78;;;17.36
60936;BMP280;46804;51.786;19.520;2023-07-29T04:32:57;158672.72;;;17.44
60936;BMP280;46804;51.786;19.520;2023-07-29T04:36:58;158671.38;;;17.44
60936;BMP280;46804;51.786;19.520;2023-07-29T04:40:59;158707.53;;;17.58
60936;BMP280;46804;51.786;19.520;2023-07-29T04:45:03;158766.84;;;17.80
60936;BMP280;46804;51.786;19.520;2023-07-29T04:49:04;158722.97;;;17.64
60936;BMP280;46804;51.786;19.520;2023-07-29T04:53:05;158680.44;;;17.47
60936;BMP280;46804;51.786;19.520;2023-07-29T04:57:06;158711.38;;;17.59
60936;BMP280;46804;51.786;19.520;2023-07-29T05:01:06;158623.69;;;17.26
60936;BMP280;46804;51.786;19.520;2023-07-29T05:05:07;158666.22;;;17.42
60936;BMP280;46804;51.786;19.520;2023-07-29T05:09:19;158733.31;;;17.67
60936;BMP280;46804;51.786;19.520;2023-07-29T05:13:20;158770.75;;;17.82
60936;BMP280;46804;51.786;19.520;2023-07-29T05:17:21;158777.19;;;17.84
60936;BMP280;46804;51.786;19.520;2023-07-29T05:21:22;158797.84;;;17.92
60936;BMP280;46804;51.786;19.520;2023-07-29T05:25:22;158772.00;;;17.82
60936;BMP280;46804;51.786;19.520;2023-07-29T05:29:23;158684.31;;;17.49
60936;BMP280;46804;51.786;19.520;2023-07-29T05:33:24;158787.50;;;17.88
60936;BMP280;46804;51.786;19.520;2023-07-29T05:37:24;158855.94;;;18.14
60936;BMP280;46804;51.786;19.520;2023-07-29T05:41:25;158836.56;;;18.07
60936;BMP280;46804;51.786;19.520;2023-07-29T05:45:28;158849.50;;;18.12
60936;BMP280;46804;51.786;19.520;2023-07-29T05:49:31;158871.38;;;18.20
60936;BMP280;46804;51.786;19.520;2023-07-29T05:53:32;158925.59;;;18.41
60936;BMP280;46804;51.786;19.520;2023-07-29T05:57:33;158979.78;;;18.62
60936;BMP280;46804;51.786;19.520;2023-07-29T06:01:33;159010.78;;;18.73
60936;BMP280;46804;51.786;19.520;2023-07-29T06:05:34;159079.25;;;19.00
60936;BMP280;46804;51.786;19.520;2023-07-29T06:09:34;159083.13;;;19.01
60936;BMP280;46804;51.786;19.520;2023-07-29T06:13:35;159102.50;;;19.08
60936;BMP280;46804;51.786;19.520;2023-07-29T06:17:36;159147.69;;;19.26
60936;BMP280;46804;51.786;19.520;2023-07-29T06:21:37;159182.53;;;19.39
60936;BMP280;46804;51.786;19.520;2023-07-29T06:25:37;159252.25;;;19.66
60936;BMP280;46804;51.786;19.520;2023-07-29T06:29:38;159341.47;;;20.00
60936;BMP280;46804;51.786;19.520;2023-07-29T06:33:39;159347.91;;;20.02
60936;BMP280;46804;51.786;19.520;2023-07-29T06:37:39;159376.34;;;20.13
60936;BMP280;46804;51.786;19.520;2023-07-29T06:41:40;159514.63;;;20.66
60936;BMP280;46804;51.786;19.520;2023-07-29T06:45:40;159452.56;;;20.42
60936;BMP280;46804;51.786;19.520;2023-07-29T06:49:41;159584.41;;;20.92
60936;BMP280;46804;51.786;19.520;2023-07-29T06:53:42;159621.94;;;21.07
60936;BMP280;46804;51.786;19.520;2023-07-29T06:57:42;159618.03;;;21.05
60936;BMP280;46804;51.786;19.520;2023-07-29T07:01:43;159733.22;;;21.49
60936;BMP280;46804;51.786;19.520;2023-07-29T07:05:44;159863.78;;;21.99
60936;BMP280;46804;51.786;19.520;2023-07-29T07:09:46;159888.41;;;22.08
60936;BMP280;46804;51.786;19.520;2023-07-29T07:13:46;159880.59;;;22.05
60936;BMP280;46804;51.786;19.520;2023-07-29T07:17:47;159924.66;;;22.22
60936;BMP280;46804;51.786;19.520;2023-07-29T07:21:48;160059.25;;;22.73
60936;BMP280;46804;51.786;19.520;2023-07-29T07:25:48;160096.78;;;22.87
60936;BMP280;46804;51.786;19.520;2023-07-29T07:29:49;160258.63;;;23.49
60936;BMP280;46804;51.786;19.520;2023-07-29T07:33:50;160338.97;;;23.80
60936;BMP280;46804;51.786;19.520;2023-07-29T07:37:51;160453.00;;;24.23
60936;BMP280;46804;51.786;19.520;2023-07-29T07:41:51;160478.88;;;24.33
60936;BMP280;46804;51.786;19.520;2023-07-29T07:45:58;160569.56;;;24.67
60936;BMP280;46804;51.786;19.520;2023-07-29T07:50:00;160515.13;;;24.47
60936;BMP280;46804;51.786;19.520;2023-07-29T07:54:00;160566.94;;;24.66
60936;BMP280;46804;51.786;19.520;2023-07-29T07:58:01;160583.78;;;24.73
60936;BMP280;46804;51.786;19.520;2023-07-29T08:02:01;160447.75;;;24.21
60936;BMP280;46804;51.786;19.520;2023-07-29T08:06:02;160554.00;;;24.61
60936;BMP280;46804;51.786;19.520;2023-07-29T08:10:04;160666.81;;;25.04
60936;BMP280;46804;51.786;19.520;2023-07-29T08:14:05;160854.81;;;25.76
60936;BMP280;46804;51.786;19.520;2023-07-29T08:18:05;160847.00;;;25.73
60936;BMP280;46804;51.786;19.520;2023-07-29T08:22:06;161132.41;;;26.81
60936;BMP280;46804;51.786;19.520;2023-07-29T08:26:07;161081.78;;;26.62
60936;BMP280;46804;51.786;19.520;2023-07-29T08:30:08;161125.94;;;26.79
60936;BMP280;46804;51.786;19.520;2023-07-29T08:34:09;161075.28;;;26.60
60936;BMP280;46804;51.786;19.520;2023-07-29T08:38:09;161041.56;;;26.47
60936;BMP280;46804;51.786;19.520;2023-07-29T08:42:11;160974.16;;;26.21
60936;BMP280;46804;51.786;19.520;2023-07-29T08:46:12;161333.59;;;27.58
60936;BMP280;46804;51.786;19.520;2023-07-29T08:50:13;161155.78;;;26.90
60936;BMP280;46804;51.786;19.520;2023-07-29T08:54:14;161455.69;;;28.04
60936;BMP280;46804;51.786;19.520;2023-07-29T08:58:15;161653.09;;;28.79
60936;BMP280;46804;51.786;19.520;2023-07-29T09:02:16;161658.28;;;28.81
60936;BMP280;46804;51.786;19.520;2023-07-29T09:06:17;161810.28;;;29.38
60936;BMP280;46804;51.786;19.520;2023-07-29T09:10:21;161516.69;;;28.27
60936;BMP280;46804;51.786;19.520;2023-07-29T09:14:23;161563.41;;;28.45
60936;BMP280;46804;51.786;19.520;2023-07-29T09:18:26;161922.13;;;29.81
60936;BMP280;46804;51.786;19.520;2023-07-29T09:22:27;161612.81;;;28.64
60936;BMP280;46804;51.786;19.520;2023-07-29T09:26:28;161753.19;;;29.17
60936;BMP280;46804;51.786;19.520;2023-07-29T09:30:28;161466.03;;;28.08
60936;BMP280;46804;51.786;19.520;2023-07-29T09:34:29;161816.84;;;29.41
60936;BMP280;46804;51.786;19.520;2023-07-29T09:38:31;161673.88;;;28.87
60936;BMP280;46804;51.786;19.520;2023-07-29T09:42:31;162100.22;;;30.48
60936;BMP280;46804;51.786;19.520;2023-07-29T09:46:34;161864.88;;;29.59
60936;BMP280;46804;51.786;19.520;2023-07-29T09:50:35;161831.09;;;29.46
60936;BMP280;46804;51.786;19.520;2023-07-29T09:54:37;161968.88;;;29.99
60936;BMP280;46804;51.786;19.520;2023-07-29T09:58:37;162074.22;;;30.39
60936;BMP280;46804;51.786;19.520;2023-07-29T10:02:43;162415.03;;;31.68
60936;BMP280;46804;51.786;19.520;2023-07-29T10:06:45;162650.63;;;32.57
60936;BMP280;46804;51.786;19.520;2023-07-29T10:10:46;162571.19;;;32.27
60936;BMP280;46804;51.786;19.520;2023-07-29T10:14:47;162875.91;;;33.42
60936;BMP280;46804;51.786;19.520;2023-07-29T10:18:49;162444.09;;;34.25
60936;BMP280;46804;51.786;19.520;2023-07-29T10:22:51;162532.16;;;32.12
60936;BMP280;46804;51.786;19.520;2023-07-29T10:26:57;162402.03;;;31.63
60936;BMP280;46804;51.786;19.520;2023-07-29T10:30:59;162445.00;;;31.79
60936;BMP280;46804;51.786;19.520;2023-07-29T10:34:59;162491.81;;;31.97
60936;BMP280;46804;51.786;19.520;2023-07-29T10:39:00;161958.47;;;29.95
60936;BMP280;46804;51.786;19.520;2023-07-29T10:43:03;162150.94;;;30.68
60936;BMP280;46804;51.786;19.520;2023-07-29T10:47:11;161802.53;;;29.36
60936;BMP280;46804;51.786;19.520;2023-07-29T10:51:34;162054.72;;;30.31
60936;BMP280;46804;51.786;19.520;2023-07-29T10:55:35;162238.09;;;31.01
60936;BMP280;46804;51.786;19.520;2023-07-29T10:59:37;162075.53;;;30.39
60936;BMP280;46804;51.786;19.520;2023-07-29T11:03:37;162197.78;;;30.85
60936;BMP280;46804;51.786;19.520;2023-07-29T11:07:45;162325.25;;;31.34
60936;BMP280;46804;51.786;19.520;2023-07-29T11:11:49;162388.97;;;31.58
60936;BMP280;46804;51.786;19.520;2023-07-29T11:15:50;162826.38;;;33.23
60936;BMP280;46804;51.786;19.520;2023-07-29T11:19:51;162573.13;;;34.17
60936;BMP280;46804;51.786;19.520;2023-07-29T11:23:53;162882.41;;;33.45
60936;BMP280;46804;51.786;19.520;2023-07-29T11:27:55;162627.19;;;32.48
60936;BMP280;46804;51.786;19.520;2023-07-29T11:31:56;162826.38;;;33.23
60936;BMP280;46804;51.786;19.520;2023-07-29T11:35:57;162943.63;;;33.68
60936;BMP280;46804;51.786;19.520;2023-07-29T11:39:58;162533.44;;;32.13
60936;BMP280;46804;51.786;19.520;2023-07-29T11:43:58;162588.16;;;32.33
60936;BMP280;46804;51.786;19.520;2023-07-29T11:48:01;162121.03;;;30.56
60936;BMP280;46804;51.786;19.520;2023-07-29T11:52:03;162244.59;;;31.03
60936;BMP280;46804;51.786;19.520;2023-07-29T11:56:04;162633.72;;;32.51
60936;BMP280;46804;51.786;19.520;2023-07-29T12:00:08;162753.50;;;32.96
60936;BMP280;46804;51.786;19.520;2023-07-29T12:04:10;162456.69;;;31.83
60936;BMP280;46804;51.786;19.520;2023-07-29T12:08:11;162747.00;;;32.93
60936;BMP280;46804;51.786;19.520;2023-07-29T12:12:12;162805.56;;;33.16
60936;BMP280;46804;51.786;19.520;2023-07-29T12:16:16;162855.06;;;33.34
60936;BMP280;46804;51.786;19.520;2023-07-29T12:20:20;162720.94;;;32.84
60936;BMP280;46804;51.786;19.520;2023-07-29T12:24:22;162934.50;;;33.64
60936;BMP280;46804;51.786;19.520;2023-07-29T12:28:23;162843.34;;;33.30
60936;BMP280;46804;51.786;19.520;2023-07-29T12:32:25;162864.22;;;34.02
60936;BMP280;46804;51.786;19.520;2023-07-29T12:36:46;162428.13;;;34.22
60936;BMP280;46804;51.786;19.520;2023-07-29T12:40:47;162690.97;;;32.72
60936;BMP280;46804;51.786;19.520;2023-07-29T12:44:48;162809.44;;;33.17
60936;BMP280;46804;51.786;19.520;2023-07-29T12:48:49;162731.38;;;32.87
60936;BMP280;46804;51.786;19.520;2023-07-29T12:52:49;162887.63;;;33.47
60936;BMP280;46804;51.786;19.520;2023-07-29T12:56:50;162692.25;;;32.73
60936;BMP280;46804;51.786;19.520;2023-07-29T13:00:51;162892.84;;;33.49
60936;BMP280;46804;51.786;19.520;2023-07-29T13:04:53;162997.03;;;33.88
60936;BMP280;46804;51.786;19.520;2023-07-29T13:08:53;162651.91;;;32.57
60936;BMP280;46804;51.786;19.520;2023-07-29T13:12:54;162547.72;;;34.17
60936;BMP280;46804;51.786;19.520;2023-07-29T13:16:55;162939.69;;;33.66
60936;BMP280;46804;51.786;19.520;2023-07-29T13:20:55;160892.78;;;34.74
60936;BMP280;46804;51.786;19.520;2023-07-29T13:24:56;162830.28;;;33.25
60936;BMP280;46804;51.786;19.520;2023-07-29T13:28:57;162655.84;;;32.59
60936;BMP280;46804;51.786;19.520;2023-07-29T13:32:58;162814.66;;;33.19
60936;BMP280;46804;51.786;19.520;2023-07-29T13:36:58;162789.94;;;33.10
60936;BMP280;46804;51.786;19.520;2023-07-29T13:40:59;162575.09;;;32.28
60936;BMP280;46804;51.786;19.520;2023-07-29T13:45:00;162750.88;;;32.95
60936;BMP280;46804;51.786;19.520;2023-07-29T13:49:00;162593.38;;;32.35
60936;BMP280;46804;51.786;19.520;2023-07-29T13:53:02;162513.94;;;32.05
60936;BMP280;46804;51.786;19.520;2023-07-29T13:57:03;162697.47;;;32.75
60936;BMP280;46804;51.786;19.520;2023-07-29T14:01:04;162342.16;;;31.40
60936;BMP280;46804;51.786;19.520;2023-07-29T14:05:04;162730.06;;;32.87
60936;BMP280;46804;51.786;19.520;2023-07-29T14:09:05;162670.13;;;32.64
60936;BMP280;46804;51.786;19.520;2023-07-29T14:13:06;162158.72;;;30.71
60936;BMP280;46804;51.786;19.520;2023-07-29T14:17:07;162057.34;;;30.32
60936;BMP280;46804;51.786;19.520;2023-07-29T14:21:09;162197.78;;;30.85
60936;BMP280;46804;51.786;19.520;2023-07-29T14:25:09;162141.81;;;30.64
60936;BMP280;46804;51.786;19.520;2023-07-29T14:29:11;161952.00;;;29.92
60936;BMP280;46804;51.786;19.520;2023-07-29T14:33:11;161985.78;;;30.05
60936;BMP280;46804;51.786;19.520;2023-07-29T14:37:12;162063.84;;;30.35
60936;BMP280;46804;51.786;19.520;2023-07-29T14:41:12;161988.41;;;30.06
60936;BMP280;46804;51.786;19.520;2023-07-29T14:45:13;161996.19;;;30.09
60936;BMP280;46804;51.786;19.520;2023-07-29T14:49:14;161828.53;;;29.45
60936;BMP280;46804;51.786;19.520;2023-07-29T14:53:15;161874.00;;;29.63
60936;BMP280;46804;51.786;19.520;2023-07-29T14:57:16;161792.13;;;29.32
60936;BMP280;46804;51.786;19.520;2023-07-29T15:01:17;161685.56;;;28.91
60936;BMP280;46804;51.786;19.520;2023-07-29T15:05:18;161664.78;;;28.83
60936;BMP280;46804;51.786;19.520;2023-07-29T15:09:20;161623.22;;;28.68
60936;BMP280;46804;51.786;19.520;2023-07-29T15:13:20;161662.19;;;28.82
60936;BMP280;46804;51.786;19.520;2023-07-29T15:17:21;161633.63;;;28.71
60936;BMP280;46804;51.786;19.520;2023-07-29T15:21:22;161533.56;;;28.34
60936;BMP280;46804;51.786;19.520;2023-07-29T15:25:22;161497.22;;;28.20
60936;BMP280;46804;51.786;19.520;2023-07-29T15:29:23;161486.81;;;28.16
60936;BMP280;46804;51.786;19.520;2023-07-29T15:33:24;161381.63;;;27.76
60936;BMP280;46804;51.786;19.520;2023-07-29T15:37:25;161253.06;;;27.27
60936;BMP280;46804;51.786;19.520;2023-07-29T15:41:26;161260.91;;;27.30
60936;BMP280;46804;51.786;19.520;2023-07-29T15:45:27;161312.84;;;27.50
60936;BMP280;46804;51.786;19.520;2023-07-29T15:49:28;161292.06;;;27.42
60936;BMP280;46804;51.786;19.520;2023-07-29T15:53:28;161280.34;;;27.37
60936;BMP280;46804;51.786;19.520;2023-07-29T15:57:29;161249.22;;;27.26
60936;BMP280;46804;51.786;19.520;2023-07-29T16:01:30;161140.25;;;26.84
60936;BMP280;46804;51.786;19.520;2023-07-29T16:05:30;161132.41;;;26.81
60936;BMP280;46804;51.786;19.520;2023-07-29T16:09:31;161151.91;;;26.89
60936;BMP280;46804;51.786;19.520;2023-07-29T16:13:32;161146.72;;;26.87
60936;BMP280;46804;51.786;19.520;2023-07-29T16:17:33;161128.56;;;26.80
60936;BMP280;46804;51.786;19.520;2023-07-29T16:21:33;161114.22;;;26.74
60936;BMP280;46804;51.786;19.520;2023-07-29T16:25:34;161077.91;;;26.61
60936;BMP280;46804;51.786;19.520;2023-07-29T16:29:35;161081.78;;;26.62
60936;BMP280;46804;51.786;19.520;2023-07-29T16:33:35;161026.03;;;26.41
60936;BMP280;46804;51.786;19.520;2023-07-29T16:37:36;161018.22;;;26.38
60936;BMP280;46804;51.786;19.520;2023-07-29T16:41:37;161003.97;;;26.32
60936;BMP280;46804;51.786;19.520;2023-07-29T16:45:37;160992.31;;;26.28
60936;BMP280;46804;51.786;19.520;2023-07-29T16:49:38;160961.09;;;26.16
60936;BMP280;46804;51.786;19.520;2023-07-29T16:53:39;160920.91;;;26.01
60936;BMP280;46804;51.786;19.520;2023-07-29T16:57:39;160893.72;;;25.91
60936;BMP280;46804;51.786;19.520;2023-07-29T17:01:40;160888.53;;;25.89
60936;BMP280;46804;51.786;19.520;2023-07-29T17:05:41;160891.09;;;25.90
60936;BMP280;46804;51.786;19.520;2023-07-29T17:09:41;160856.09;;;25.76
60936;BMP280;46804;51.786;19.520;2023-07-29T17:13:42;160845.72;;;25.72
60936;BMP280;46804;51.786;19.520;2023-07-29T17:17:45;160843.13;;;25.71
60936;BMP280;46804;51.786;19.520;2023-07-29T17:21:46;160813.28;;;25.60
60936;BMP280;46804;51.786;19.520;2023-07-29T17:25:46;160787.34;;;25.50
60936;BMP280;46804;51.786;19.520;2023-07-29T17:29:47;160760.09;;;25.40
60936;BMP280;46804;51.786;19.520;2023-07-29T17:33:48;160743.25;;;25.33
60936;BMP280;46804;51.786;19.520;2023-07-29T17:37:48;160736.78;;;25.31
60936;BMP280;46804;51.786;19.520;2023-07-29T17:41:49;160701.78;;;25.18
60936;BMP280;46804;51.786;19.520;2023-07-29T17:45:50;160679.75;;;25.09
60936;BMP280;46804;51.786;19.520;2023-07-29T17:49:50;160655.13;;;25.00
60936;BMP280;46804;51.786;19.520;2023-07-29T17:53:52;160620.09;;;24.87
60936;BMP280;46804;51.786;19.520;2023-07-29T17:57:52;160603.25;;;24.80
60936;BMP280;46804;51.786;19.520;2023-07-29T18:01:53;160576.03;;;24.70
60936;BMP280;46804;51.786;19.520;2023-07-29T18:05:54;160543.63;;;24.57
60936;BMP280;46804;51.786;19.520;2023-07-29T18:09:55;160507.38;;;24.44
60936;BMP280;46804;51.786;19.520;2023-07-29T18:13:55;160491.81;;;24.38
60936;BMP280;46804;51.786;19.520;2023-07-29T18:17:56;160467.22;;;24.28
60936;BMP280;46804;51.786;19.520;2023-07-29T18:21:57;160476.31;;;24.32
60936;BMP280;46804;51.786;19.520;2023-07-29T18:25:57;160449.03;;;24.21
60936;BMP280;46804;51.786;19.520;2023-07-29T18:29:58;160419.25;;;24.10
60936;BMP280;46804;51.786;19.520;2023-07-29T18:33:59;160379.09;;;23.95
60936;BMP280;46804;51.786;19.520;2023-07-29T18:37:59;160327.31;;;23.75
60936;BMP280;46804;51.786;19.520;2023-07-29T18:42:00;160289.75;;;23.61
60936;BMP280;46804;51.786;19.520;2023-07-29T18:46:01;160179.66;;;23.19
60936;BMP280;46804;51.786;19.520;2023-07-29T18:50:01;160129.16;;;23.00
60936;BMP280;46804;51.786;19.520;2023-07-29T18:54:04;160116.22;;;22.95
60936;BMP280;46804;51.786;19.520;2023-07-29T18:58:04;160098.06;;;22.88
60936;BMP280;46804;51.786;19.520;2023-07-29T19:02:05;160083.81;;;22.83
60936;BMP280;46804;51.786;19.520;2023-07-29T19:06:06;160072.16;;;22.78
60936;BMP280;46804;51.786;19.520;2023-07-29T19:10:07;160048.88;;;22.69
60936;BMP280;46804;51.786;19.520;2023-07-29T19:14:08;160017.78;;;22.57
60936;BMP280;46804;51.786;19.520;2023-07-29T19:18:09;160028.16;;;22.61
60936;BMP280;46804;51.786;19.520;2023-07-29T19:22:10;160087.75;;;22.84
60936;BMP280;46804;51.786;19.520;2023-07-29T19:26:10;160098.06;;;22.88
60936;BMP280;46804;51.786;19.520;2023-07-29T19:30:11;160039.78;;;22.66
60936;BMP280;46804;51.786;19.520;2023-07-29T19:34:13;159973.84;;;22.41
60936;BMP280;46804;51.786;19.520;2023-07-29T19:38:14;159925.94;;;22.22
60936;BMP280;46804;51.786;19.520;2023-07-29T19:42:14;159450.00;;;20.41
60936;BMP280;46804;51.786;19.520;2023-07-29T19:46:15;159274.22;;;19.74
60936;BMP280;46804;51.786;19.520;2023-07-29T19:50:16;159198.06;;;19.45
60936;BMP280;46804;51.786;19.520;2023-07-29T19:54:16;159150.25;;;19.27
60936;BMP280;46804;51.786;19.520;2023-07-29T19:58:18;159076.66;;;18.99
60936;BMP280;46804;51.786;19.520;2023-07-29T20:02:19;159044.34;;;18.86
60936;BMP280;46804;51.786;19.520;2023-07-29T20:06:20;159022.41;;;18.78
60936;BMP280;46804;51.786;19.520;2023-07-29T20:10:20;158974.66;;;18.60
60936;BMP280;46804;51.786;19.520;2023-07-29T20:14:21;158926.88;;;18.41
60936;BMP280;46804;51.786;19.520;2023-07-29T20:18:22;158906.25;;;18.34
60936;BMP280;46804;51.786;19.520;2023-07-29T20:22:23;158894.66;;;18.29
60936;BMP280;46804;51.786;19.520;2023-07-29T20:26:24;158889.47;;;18.27
60936;BMP280;46804;51.786;19.520;2023-07-29T20:30:25;158884.31;;;18.25
60936;BMP280;46804;51.786;19.520;2023-07-29T20:34:25;158928.16;;;18.42
60936;BMP280;46804;51.786;19.520;2023-07-29T20:38:26;158920.44;;;18.39
60936;BMP280;46804;51.786;19.520;2023-07-29T20:42:27;158894.66;;;18.29
60936;BMP280;46804;51.786;19.520;2023-07-29T20:46:27;158897.22;;;18.30
60936;BMP280;46804;51.786;19.520;2023-07-29T20:50:29;158859.78;;;18.16
60936;BMP280;46804;51.786;19.520;2023-07-29T20:54:30;158897.22;;;18.30
60936;BMP280;46804;51.786;19.520;2023-07-29T20:58:31;158845.59;;;18.10
60936;BMP280;46804;51.786;19.520;2023-07-29T21:02:32;158889.47;;;18.27
60936;BMP280;46804;51.786;19.520;2023-07-29T21:06:35;158965.59;;;18.56
60936;BMP280;46804;51.786;19.520;2023-07-29T21:10:36;159009.50;;;18.73
60936;BMP280;46804;51.786;19.520;2023-07-29T21:14:36;159030.13;;;18.81
60936;BMP280;46804;51.786;19.520;2023-07-29T21:18:37;159048.19;;;18.88
60936;BMP280;46804;51.786;19.520;2023-07-29T21:22:37;159015.94;;;18.75
60936;BMP280;46804;51.786;19.520;2023-07-29T21:26:38;159037.91;;;18.84
60936;BMP280;46804;51.786;19.520;2023-07-29T21:30:39;159028.84;;;18.80
60936;BMP280;46804;51.786;19.520;2023-07-29T21:34:40;159006.91;;;18.72
60936;BMP280;46804;51.786;19.520;2023-07-29T21:38:40;159030.13;;;18.81
60936;BMP280;46804;51.786;19.520;2023-07-29T21:42:41;159017.22;;;18.76
60936;BMP280;46804;51.786;19.520;2023-07-29T21:46:42;159005.63;;;18.71
60936;BMP280;46804;51.786;19.520;2023-07-29T21:50:43;159063.75;;;18.94
60936;BMP280;46804;51.786;19.520;2023-07-29T21:54:43;159076.66;;;18.99
60936;BMP280;46804;51.786;19.520;2023-07-29T21:58:44;159055.97;;;18.91
60936;BMP280;46804;51.786;19.520;2023-07-29T22:02:45;159049.53;;;18.88
60936;BMP280;46804;51.786;19.520;2023-07-29T22:06:46;159015.94;;;18.75
60936;BMP280;46804;51.786;19.520;2023-07-29T22:10:47;158932.06;;;18.43
60936;BMP280;46804;51.786;19.520;2023-07-29T22:14:47;158956.56;;;18.53
60936;BMP280;46804;51.786;19.520;2023-07-29T22:18:48;158955.28;;;18.52
60936;BMP280;46804;51.786;19.520;2023-07-29T22:22:49;158992.72;;;18.67
60936;BMP280;46804;51.786;19.520;2023-07-29T22:26:50;158972.06;;;18.59
60936;BMP280;46804;51.786;19.520;2023-07-29T22:30:51;158961.72;;;18.55